Main page
METAR-TAF:

METAR-TAF

Airports :

Mahikeng Airport

Mahikeng, South Africa

latitude: 25-47S, longitude: 025-32E, elevation: 1281 m

Current weather observation

The report was made 47 minutes ago, at 00:00 UTC
Wind 3 kt from the East
Temperature 7°C
Humidity 70%
Pressure 1033 hPa

METAR: FAMM 240000Z AUTO 09003KT //// // ////// 07/02 Q1033

Time: 02:47 (00:47 UTC)

Forecast

The report was made 15 hours and 47 minutes ago, at 09:00 UTC
Forecast valid from 23 at 10 UTC to 23 at 18 UTC
Wind 17 kt from the Northeast
Visibility 10 km or more
no clouds below 1500 m and no cumulonimbus
Becoming
from 23 at 15 UTC to 23 at 17 UTC
Wind 3 kt from variable directions

TAF: FAMM 230900Z 2310/2318 04017KT CAVOK TX22/2313Z TN11/2318Z BECMG 2315/2317 VRB03KT

Weather observations and forecasts of more than 4000 airports (METAR and TAF reports).

The available stations are represented by yellow and red dots on the map.

Hover mouse over dot to see the name of the station.

Then click to see weather observations and forecasts.

To change the map : click on the green buttons with a black cross to zoom in, on the green button with a dash to zoom out, or on the green arrows for adjacent maps.


METAR-TAF: